Time;durP1;ratioP1;P1;durP2;ratioP2;P2;SDS_P1;SDS_P2;PMS_P1;PMS_P2;Temp;Humidity;BMP_temperature;BMP_pressure;BME280_temperature;BME280_humidity;BME280_pressure;Samples;Min_cycle;Max_cycle;Signal;HPM_P1;HPM_P2
2023/01/03 00:01:00;;;;;;;;;;;;;;;;;;7367808;19;20172;-76
2023/01/03 00:03:26;;;;;;;;;;;;;;;;;;7365206;19;19915;-77
2023/01/03 00:05:51;;;;;;;;;;;;;;;;;;7365088;19;19927;-78
2023/01/03 00:08:16;;;;;;;;;;;;;;;;;;7358530;19;19929;-77
2023/01/03 00:10:42;;;;;;;;;;;;;;;;;;7361104;19;19953;-77
2023/01/03 00:13:07;;;;;;;;;;;;;;;;;;7362811;19;19946;-78
2023/01/03 00:15:32;;;;;;;;;;;;;;;;;;7363755;19;19970;-77
2023/01/03 00:17:57;;;;;;;;;;;;;;;;;;7365645;19;20307;-77
2023/01/03 00:20:22;;;;;;;;;;;;;;;;;;7362593;19;19926;-78
2023/01/03 00:22:47;;;;;;;;;;;;;;;;;;7362290;19;20031;-77
2023/01/03 00:25:12;;;;;;;;;;;;;;;;;;7363834;19;19915;-76
2023/01/03 00:27:37;;;;;;;;;;;;;;;;;;7362608;19;20229;-78
2023/01/03 00:30:02;;;;;;;;;;;;;;;;;;7364456;19;19919;-78
2023/01/03 00:32:28;;;;;;;;;;;;;;;;;;7363480;19;19915;-78
2023/01/03 00:34:53;;;;;;;;;;;;;;;;;;7360582;19;19949;-77
2023/01/03 00:37:18;;;;;;;;;;;;;;;;;;7364340;19;19935;-77
2023/01/03 00:39:43;;;;;;;;;;;;;;;;;;7358730;19;19983;-77
2023/01/03 00:42:08;;;;;;;;;;;;;;;;;;7365982;19;19919;-77
2023/01/03 00:44:33;;;;;;;;;;;;;;;;;;7361106;19;20079;-77
2023/01/03 00:46:58;;;;;;;;;;;;;;;;;;7355251;19;19964;-77
2023/01/03 00:49:23;;;;;;;;;;;;;;;;;;7369632;19;20382;-78
2023/01/03 00:51:48;;;;;;;;;;;;;;;;;;7368612;19;19938;-77
2023/01/03 00:54:14;;;;;;;;;;;;;;;;;;7367079;19;19966;-77
2023/01/03 00:56:39;;;;;;;;;;;;;;;;;;7367108;19;19927;-77
2023/01/03 00:59:04;;;;;;;;;;;;;;;;;;7368022;19;19982;-77
2023/01/03 01:01:29;;;;;;;;;;;;;;;;;;7370491;19;20016;-78
2023/01/03 01:03:55;;;;;;;;;;;;;;;;;;7383316;19;19942;-78
2023/01/03 01:06:20;;;;;;;;;;;;;;;;;;7373485;19;20276;-77
2023/01/03 01:08:45;;;;;;;;;;;;;;;;;;7359373;19;19919;-77
2023/01/03 01:11:11;;;;;;;;;;;;;;;;;;7361434;19;20349;-79
2023/01/03 01:13:36;;;;;;;;;;;;;;;;;;7367134;19;19971;-77
2023/01/03 01:16:01;;;;;;;;;;;;;;;;;;7368077;19;20066;-77
2023/01/03 01:18:26;;;;;;;;;;;;;;;;;;7362763;19;19942;-78
2023/01/03 01:20:51;;;;;;;;;;;;;;;;;;7370548;19;19918;-77
2023/01/03 01:23:16;;;;;;;;;;;;;;;;;;7367848;19;19985;-77
2023/01/03 01:25:42;;;;;;;;;;;;;;;;;;7365987;19;19950;-77
2023/01/03 01:28:07;;;;;;;;;;;;;;;;;;7365369;19;19931;-78
2023/01/03 01:30:32;;;;;;;;;;;;;;;;;;7363000;19;20215;-78
2023/01/03 01:32:57;;;;;;;;;;;;;;;;;;7368645;19;19936;-78
2023/01/03 01:35:22;;;;;;;;;;;;;;;;;;7362313;19;19918;-77
2023/01/03 01:37:47;;;;;;;;;;;;;;;;;;7336072;19;20309;-78
2023/01/03 01:40:12;;;;;;;;;;;;;;;;;;7365438;19;19962;-77
2023/01/03 01:45:21;;;;;;;;;;;;;;;;;;7364252;19;19931;-78
2023/01/03 01:47:46;;;;;;;;;;;;;;;;;;7364221;19;19927;-76
2023/01/03 01:50:12;;;;;;;;;;;;;;;;;;7365641;19;19918;-78
2023/01/03 01:52:37;;;;;;;;;;;;;;;;;;7361931;19;19979;-76
2023/01/03 01:55:02;;;;;;;;;;;;;;;;;;7362403;19;19945;-78
2023/01/03 01:57:27;;;;;;;;;;;;;;;;;;7362766;19;19956;-79
2023/01/03 01:59:52;;;;;;;;;;;;;;;;;;7358897;19;20056;-78
2023/01/03 02:02:17;;;;;;;;;;;;;;;;;;7367674;19;20020;-76
2023/01/03 02:04:42;;;;;;;;;;;;;;;;;;7361649;19;20062;-78
2023/01/03 02:07:07;;;;;;;;;;;;;;;;;;7364333;19;20439;-77
2023/01/03 02:09:34;;;;;;;;;;;;;;;;;;7357279;19;19982;-79
2023/01/03 02:14:43;;;;;;;;;;;;;;;;;;7362623;19;19926;-77
2023/01/03 02:17:08;;;;;;;;;;;;;;;;;;7365289;19;20265;-77
2023/01/03 02:19:33;;;;;;;;;;;;;;;;;;7364837;19;20284;-78
2023/01/03 02:21:58;;;;;;;;;;;;;;;;;;7361646;19;20069;-78
2023/01/03 02:24:23;;;;;;;;;;;;;;;;;;7362608;19;20725;-77
2023/01/03 02:26:48;;;;;;;;;;;;;;;;;;7347114;19;19915;-77
2023/01/03 02:29:13;;;;;;;;;;;;;;;;;;7363775;19;19990;-78
2023/01/03 02:31:38;;;;;;;;;;;;;;;;;;7361855;19;19934;-77
2023/01/03 02:34:03;;;;;;;;;;;;;;;;;;7356030;19;20038;-78
2023/01/03 02:36:29;;;;;;;;;;;;;;;;;;7361323;19;20395;-78
2023/01/03 02:38:54;;;;;;;;;;;;;;;;;;7299242;19;19940;-78
2023/01/03 02:41:19;;;;;;;;;;;;;;;;;;7270543;19;20415;-79
2023/01/03 02:43:45;;;;;;;;;;;;;;;;;;7257541;19;19929;-78
2023/01/03 02:46:11;;;;;;;;;;;;;;;;;;7274549;19;20133;-78
2023/01/03 02:48:38;;;;;;;;;;;;;;;;;;7265311;19;19926;-79
2023/01/03 02:51:03;;;;;;;;;;;;;;;;;;7275616;19;20343;-78
2023/01/03 02:53:28;;;;;;;;;;;;;;;;;;7269698;19;20010;-78
2023/01/03 02:55:53;;;;;;;;;;;;;;;;;;7259242;19;20182;-78
2023/01/03 02:58:18;;;;;;;;;;;;;;;;;;7268095;19;19922;-76
2023/01/03 03:00:43;;;;;;;;;;;;;;;;;;7254504;19;20258;-78
2023/01/03 03:03:08;;;;;;;;;;;;;;;;;;7264279;19;20279;-78
2023/01/03 03:05:33;;;;;;;;;;;;;;;;;;7272801;19;20037;-78
2023/01/03 03:07:59;;;;;;;;;;;;;;;;;;7254758;19;20457;-78
2023/01/03 03:13:14;;;;;;;;;;;;;;;;;;7276541;19;20518;-76
2023/01/03 03:15:39;;;;;;;;;;;;;;;;;;7263426;19;20670;-78
2023/01/03 03:18:04;;;;;;;;;;;;;;;;;;7273470;19;19918;-78
2023/01/03 03:25:58;;;;;;;;;;;;;;;;;;7267982;19;20514;-78
2023/01/03 03:28:35;;;;;;;;;;;;;;;;;;7272438;19;20509;-78
2023/01/03 03:31:00;;;;;;;;;;;;;;;;;;7276718;19;19971;-78
2023/01/03 03:33:26;;;;;;;;;;;;;;;;;;7274649;19;19935;-77
2023/01/03 03:35:51;;;;;;;;;;;;;;;;;;7268924;19;19942;-79
2023/01/03 03:38:16;;;;;;;;;;;;;;;;;;7291712;19;19915;-77
2023/01/03 03:46:08;;;;;;;;;;;;;;;;;;7359526;19;20301;-78
2023/01/03 03:49:36;;;;;;;;;;;;;;;;;;7361748;19;19939;-77
2023/01/03 03:51:19;;;;;;;;;;;;;;;;;;7364042;19;20241;-77
2023/01/03 03:53:44;;;;;;;;;;;;;;;;;;7357296;19;20240;-75
2023/01/03 03:56:09;;;;;;;;;;;;;;;;;;7359040;19;19938;-77
2023/01/03 03:58:34;;;;;;;;;;;;;;;;;;7354838;19;20458;-75
2023/01/03 04:00:59;;;;;;;;;;;;;;;;;;7358209;19;19934;-76
2023/01/03 04:03:24;;;;;;;;;;;;;;;;;;7366084;19;20302;-76
2023/01/03 04:05:49;;;;;;;;;;;;;;;;;;7362804;19;19918;-76
2023/01/03 04:08:14;;;;;;;;;;;;;;;;;;7354616;19;19978;-77
2023/01/03 04:10:40;;;;;;;;;;;;;;;;;;7361527;19;20287;-76
2023/01/03 04:13:05;;;;;;;;;;;;;;;;;;7359592;19;19942;-77
2023/01/03 04:15:30;;;;;;;;;;;;;;;;;;7362173;19;19926;-77
2023/01/03 04:17:55;;;;;;;;;;;;;;;;;;7361308;19;20273;-76
2023/01/03 04:20:20;;;;;;;;;;;;;;;;;;7356222;19;20203;-76
2023/01/03 04:22:45;;;;;;;;;;;;;;;;;;7361641;19;20323;-77
2023/01/03 04:25:10;;;;;;;;;;;;;;;;;;7366626;19;20025;-75
2023/01/03 04:27:35;;;;;;;;;;;;;;;;;;7364318;19;19947;-78
2023/01/03 04:30:00;;;;;;;;;;;;;;;;;;7365192;19;19923;-77
2023/01/03 04:32:25;;;;;;;;;;;;;;;;;;7367707;19;19914;-76
2023/01/03 04:34:51;;;;;;;;;;;;;;;;;;7365599;19;19922;-75
2023/01/03 04:37:16;;;;;;;;;;;;;;;;;;7370023;19;19919;-76
2023/01/03 04:39:41;;;;;;;;;;;;;;;;;;7361041;19;19933;-76
2023/01/03 04:44:00;;;;;;;;;;;;;;;;;;7359666;19;20237;-76
2023/01/03 04:44:51;;;;;;;;;;;;;;;;;;7358699;19;19927;-76
2023/01/03 04:47:16;;;;;;;;;;;;;;;;;;7356158;19;19936;-77
2023/01/03 04:49:41;;;;;;;;;;;;;;;;;;7361847;19;19930;-76
2023/01/03 04:52:06;;;;;;;;;;;;;;;;;;7369289;19;19971;-76
2023/01/03 04:54:31;;;;;;;;;;;;;;;;;;7362870;19;19935;-77
2023/01/03 04:56:57;;;;;;;;;;;;;;;;;;7366754;19;19915;-76
2023/01/03 04:59:22;;;;;;;;;;;;;;;;;;7366089;19;19919;-76
2023/01/03 05:01:50;;;;;;;;;;;;;;;;;;7358412;19;19922;-77
2023/01/03 05:04:15;;;;;;;;;;;;;;;;;;7364697;19;19959;-76
2023/01/03 05:06:40;;;;;;;;;;;;;;;;;;7367168;19;19944;-77
2023/01/03 05:09:06;;;;;;;;;;;;;;;;;;7360910;19;20235;-75
2023/01/03 05:11:31;;;;;;;;;;;;;;;;;;7369065;19;19923;-76
2023/01/03 05:13:56;;;;;;;;;;;;;;;;;;7365534;19;20343;-75
2023/01/03 05:16:21;;;;;;;;;;;;;;;;;;7369394;19;20257;-76
2023/01/03 05:18:50;;;;;;;;;;;;;;;;;;7361832;19;20340;-76
2023/01/03 05:26:43;;;;;;;;;;;;;;;;;;7364671;19;19922;-77
2023/01/03 05:29:08;;;;;;;;;;;;;;;;;;7356086;19;19922;-76
2023/01/03 05:31:33;;;;;;;;;;;;;;;;;;7364578;19;19914;-76
2023/01/03 05:33:59;;;;;;;;;;;;;;;;;;7352789;19;19935;-75
2023/01/03 05:36:24;;;;;;;;;;;;;;;;;;7363982;19;19943;-75
2023/01/03 05:38:49;;;;;;;;;;;;;;;;;;7359669;19;20356;-77
2023/01/03 05:41:58;;;;;;;;;;;;;;;;;;7366246;19;19978;-75
2023/01/03 05:43:59;;;;;;;;;;;;;;;;;;7363085;19;20213;-76
2023/01/03 05:46:24;;;;;;;;;;;;;;;;;;7356785;19;20136;-75
2023/01/03 05:48:49;;;;;;;;;;;;;;;;;;7358760;19;19919;-75
2023/01/03 05:51:14;;;;;;;;;;;;;;;;;;7367801;19;19982;-77
2023/01/03 05:53:39;;;;;;;;;;;;;;;;;;7363081;19;19922;-78
2023/01/03 05:56:05;;;;;;;;;;;;;;;;;;7368212;19;20323;-78
2023/01/03 05:58:30;;;;;;;;;;;;;;;;;;7366058;19;20406;-77
2023/01/03 06:00:55;;;;;;;;;;;;;;;;;;7363290;19;19938;-77
2023/01/03 06:03:20;;;;;;;;;;;;;;;;;;7358440;19;19935;-75
2023/01/03 06:05:45;;;;;;;;;;;;;;;;;;7363193;19;20326;-75
2023/01/03 06:08:10;;;;;;;;;;;;;;;;;;7355938;19;19930;-75
2023/01/03 06:10:35;;;;;;;;;;;;;;;;;;7362750;19;20023;-75
2023/01/03 06:13:00;;;;;;;;;;;;;;;;;;7358747;19;19922;-75
2023/01/03 06:15:26;;;;;;;;;;;;;;;;;;7364824;19;20304;-75
2023/01/03 06:17:56;;;;;;;;;;;;;;;;;;7341663;19;19915;-75
2023/01/03 06:20:21;;;;;;;;;;;;;;;;;;7366810;19;19944;-75
2023/01/03 06:22:46;;;;;;;;;;;;;;;;;;7362044;19;19915;-75
2023/01/03 06:25:11;;;;;;;;;;;;;;;;;;7364410;19;19927;-75
2023/01/03 06:27:36;;;;;;;;;;;;;;;;;;7359255;19;19942;-76
2023/01/03 06:30:02;;;;;;;;;;;;;;;;;;7363308;19;20002;-76
2023/01/03 06:32:27;;;;;;;;;;;;;;;;;;7362568;19;19915;-76
2023/01/03 06:34:52;;;;;;;;;;;;;;;;;;7362697;19;20497;-77
2023/01/03 06:37:17;;;;;;;;;;;;;;;;;;7350401;19;20022;-77
2023/01/03 06:39:42;;;;;;;;;;;;;;;;;;7344586;19;19919;-77
2023/01/03 06:53:12;;;;;;;;;;;;;;;;;;7333338;19;20361;-76
2023/01/03 06:55:37;;;;;;;;;;;;;;;;;;7358403;19;20503;-77
2023/01/03 06:58:02;;;;;;;;;;;;;;;;;;7357227;19;20383;-76
2023/01/03 07:00:28;;;;;;;;;;;;;;;;;;7365109;19;19937;-77
2023/01/03 07:02:53;;;;;;;;;;;;;;;;;;7357092;19;19919;-78
2023/01/03 07:05:18;;;;;;;;;;;;;;;;;;7364425;19;19944;-77
2023/01/03 07:07:43;;;;;;;;;;;;;;;;;;7354724;19;20426;-77
2023/01/03 07:10:08;;;;;;;;;;;;;;;;;;7360411;19;19923;-76
2023/01/03 07:15:17;;;;;;;;;;;;;;;;;;7360666;19;20038;-77
2023/01/03 07:17:42;;;;;;;;;;;;;;;;;;7361960;19;19972;-77
2023/01/03 07:20:07;;;;;;;;;;;;;;;;;;7366341;19;20205;-77
2023/01/03 07:22:32;;;;;;;;;;;;;;;;;;7355704;19;19915;-77
2023/01/03 07:24:57;;;;;;;;;;;;;;;;;;7356116;19;19923;-77
2023/01/03 07:27:22;;;;;;;;;;;;;;;;;;7365299;19;19944;-77
2023/01/03 07:29:48;;;;;;;;;;;;;;;;;;7364786;19;19978;-76
2023/01/03 07:32:13;;;;;;;;;;;;;;;;;;7355139;19;19967;-77
2023/01/03 07:34:38;;;;;;;;;;;;;;;;;;7362295;19;19919;-77
2023/01/03 07:37:03;;;;;;;;;;;;;;;;;;7356758;19;20006;-77
2023/01/03 07:39:28;;;;;;;;;;;;;;;;;;7362921;19;19942;-77
2023/01/03 07:44:37;;;;;;;;;;;;;;;;;;7366910;19;19929;-79
2023/01/03 07:47:02;;;;;;;;;;;;;;;;;;7366098;19;19919;-78
2023/01/03 07:49:27;;;;;;;;;;;;;;;;;;7364681;19;20010;-76
2023/01/03 07:51:52;;;;;;;;;;;;;;;;;;7366679;19;20320;-77
2023/01/03 07:54:17;;;;;;;;;;;;;;;;;;7361920;19;19919;-77
2023/01/03 07:56:42;;;;;;;;;;;;;;;;;;7370687;19;19923;-77
2023/01/03 07:59:07;;;;;;;;;;;;;;;;;;7372719;19;20446;-76
2023/01/03 08:01:33;;;;;;;;;;;;;;;;;;7367828;19;19975;-76
2023/01/03 08:03:58;;;;;;;;;;;;;;;;;;7366446;19;19966;-77
2023/01/03 08:06:23;;;;;;;;;;;;;;;;;;7371159;19;19929;-78
2023/01/03 08:14:16;;;;;;;;;;;;;;;;;;7368603;19;19934;-78
2023/01/03 08:16:41;;;;;;;;;;;;;;;;;;7372870;19;20303;-77
2023/01/03 08:19:06;;;;;;;;;;;;;;;;;;7367530;19;20308;-77
2023/01/03 08:21:31;;;;;;;;;;;;;;;;;;7373263;19;19952;-77
2023/01/03 08:23:56;;;;;;;;;;;;;;;;;;7369304;19;19919;-77
2023/01/03 08:26:21;;;;;;;;;;;;;;;;;;7366106;19;20161;-77
2023/01/03 08:28:46;;;;;;;;;;;;;;;;;;7370478;19;19921;-78
2023/01/03 08:31:11;;;;;;;;;;;;;;;;;;7367050;19;19930;-77
2023/01/03 08:33:37;;;;;;;;;;;;;;;;;;7371068;19;19938;-78
2023/01/03 08:36:02;;;;;;;;;;;;;;;;;;7371024;19;20023;-77
2023/01/03 08:38:27;;;;;;;;;;;;;;;;;;7362944;19;20303;-78
2023/01/03 08:40:52;;;;;;;;;;;;;;;;;;7372719;19;20413;-77
2023/01/03 08:43:17;;;;;;;;;;;;;;;;;;7367795;19;20022;-79
2023/01/03 08:45:42;;;;;;;;;;;;;;;;;;7368223;19;20322;-78
2023/01/03 08:48:08;;;;;;;;;;;;;;;;;;7365265;19;20013;-78
2023/01/03 08:50:33;;;;;;;;;;;;;;;;;;7375011;19;19938;-79
2023/01/03 08:52:59;;;;;;;;;;;;;;;;;;7368826;19;19947;-79
2023/01/03 08:55:24;;;;;;;;;;;;;;;;;;7366450;19;20052;-78
2023/01/03 08:57:49;;;;;;;;;;;;;;;;;;7368713;19;20035;-78
2023/01/03 09:00:14;;;;;;;;;;;;;;;;;;7367288;19;19907;-78
2023/01/03 09:02:40;;;;;;;;;;;;;;;;;;7363575;19;19927;-78
2023/01/03 09:05:05;;;;;;;;;;;;;;;;;;7370940;19;20325;-77
2023/01/03 09:07:30;;;;;;;;;;;;;;;;;;7368467;19;20260;-76
2023/01/03 09:09:55;;;;;;;;;;;;;;;;;;7370245;19;19922;-78
2023/01/03 09:12:20;;;;;;;;;;;;;;;;;;7367329;19;20430;-78
2023/01/03 09:14:45;;;;;;;;;;;;;;;;;;7369960;19;20301;-77
2023/01/03 09:17:10;;;;;;;;;;;;;;;;;;7372606;19;19944;-77
2023/01/03 09:19:35;;;;;;;;;;;;;;;;;;7374504;19;20301;-79
2023/01/03 09:22:01;;;;;;;;;;;;;;;;;;7372617;19;19918;-77
2023/01/03 09:24:26;;;;;;;;;;;;;;;;;;7370745;19;19942;-77
2023/01/03 09:26:51;;;;;;;;;;;;;;;;;;7373627;19;20262;-79
2023/01/03 09:29:16;;;;;;;;;;;;;;;;;;7372594;19;20289;-78
2023/01/03 09:31:41;;;;;;;;;;;;;;;;;;7372412;19;20309;-77
2023/01/03 09:34:06;;;;;;;;;;;;;;;;;;7368088;19;20311;-78
2023/01/03 09:36:31;;;;;;;;;;;;;;;;;;7368473;19;19915;-78
2023/01/03 09:38:56;;;;;;;;;;;;;;;;;;7365918;19;19918;-77
2023/01/03 09:41:22;;;;;;;;;;;;;;;;;;7369007;19;20277;-78
2023/01/03 09:43:47;;;;;;;;;;;;;;;;;;7369173;19;19967;-78
2023/01/03 09:46:12;;;;;;;;;;;;;;;;;;7360351;19;20424;-77
2023/01/03 09:48:37;;;;;;;;;;;;;;;;;;7368952;19;19942;-78
2023/01/03 09:51:02;;;;;;;;;;;;;;;;;;7370319;19;19982;-78
2023/01/03 10:04:30;;;;;;;;;;;;;;;;;;7368072;19;20035;-78
2023/01/03 10:06:56;;;;;;;;;;;;;;;;;;7371529;19;20018;-77
2023/01/03 10:09:21;;;;;;;;;;;;;;;;;;7362818;19;20001;-77
2023/01/03 10:11:47;;;;;;;;;;;;;;;;;;7358697;19;19915;-78
2023/01/03 10:14:12;;;;;;;;;;;;;;;;;;7362575;19;19922;-77
2023/01/03 10:16:37;;;;;;;;;;;;;;;;;;7370216;19;19950;-77
2023/01/03 10:19:03;;;;;;;;;;;;;;;;;;7370408;19;19914;-78
2023/01/03 10:21:28;;;;;;;;;;;;;;;;;;7364491;19;20018;-78
2023/01/03 10:23:53;;;;;;;;;;;;;;;;;;7365306;19;19935;-79
2023/01/03 10:26:18;;;;;;;;;;;;;;;;;;7368800;19;19994;-79
2023/01/03 10:28:43;;;;;;;;;;;;;;;;;;7370474;19;20042;-78
2023/01/03 10:31:08;;;;;;;;;;;;;;;;;;7367304;19;19926;-77
2023/01/03 10:33:33;;;;;;;;;;;;;;;;;;7369276;19;19918;-78
2023/01/03 10:35:58;;;;;;;;;;;;;;;;;;7366533;19;19918;-77
2023/01/03 10:38:24;;;;;;;;;;;;;;;;;;7362654;19;19921;-77
2023/01/03 10:40:49;;;;;;;;;;;;;;;;;;7370558;19;20636;-81
2023/01/03 10:43:15;;;;;;;;;;;;;;;;;;7368620;19;19928;-80
2023/01/03 10:45:40;;;;;;;;;;;;;;;;;;7368638;19;20281;-80
2023/01/03 10:48:05;;;;;;;;;;;;;;;;;;7369467;19;19974;-80
2023/01/03 10:50:30;;;;;;;;;;;;;;;;;;7369946;19;19936;-80
2023/01/03 10:52:56;;;;;;;;;;;;;;;;;;7368453;19;19929;-81
2023/01/03 10:55:22;;;;;;;;;;;;;;;;;;7366494;19;19922;-81
2023/01/03 10:57:47;;;;;;;;;;;;;;;;;;7371159;19;19918;-80
2023/01/03 11:00:12;;;;;;;;;;;;;;;;;;7369172;19;20289;-80
2023/01/03 11:02:37;;;;;;;;;;;;;;;;;;7367241;19;19922;-81
2023/01/03 11:05:03;;;;;;;;;;;;;;;;;;7372096;19;19943;-81
2023/01/03 11:07:28;;;;;;;;;;;;;;;;;;7359871;19;19923;-78
2023/01/03 11:09:53;;;;;;;;;;;;;;;;;;7369217;19;19918;-80
2023/01/03 11:12:18;;;;;;;;;;;;;;;;;;7368568;19;19943;-81
2023/01/03 11:14:43;;;;;;;;;;;;;;;;;;7367408;19;19922;-80
2023/01/03 11:17:08;;;;;;;;;;;;;;;;;;7367584;19;19946;-80
2023/01/03 11:19:34;;;;;;;;;;;;;;;;;;7368770;19;20447;-79
2023/01/03 11:21:59;;;;;;;;;;;;;;;;;;7368414;19;20019;-81
2023/01/03 11:24:24;;;;;;;;;;;;;;;;;;7365355;19;20248;-80
2023/01/03 11:26:49;;;;;;;;;;;;;;;;;;7371093;19;19923;-81
2023/01/03 11:29:14;;;;;;;;;;;;;;;;;;7369669;19;19926;-80
2023/01/03 11:31:39;;;;;;;;;;;;;;;;;;7364869;19;19915;-81
2023/01/03 11:34:04;;;;;;;;;;;;;;;;;;7367575;19;19942;-80
2023/01/03 11:36:30;;;;;;;;;;;;;;;;;;7366556;19;19915;-80
2023/01/03 11:38:55;;;;;;;;;;;;;;;;;;7366883;19;20367;-80
2023/01/03 11:41:20;;;;;;;;;;;;;;;;;;7367389;19;20224;-80
2023/01/03 11:43:45;;;;;;;;;;;;;;;;;;7367813;19;20063;-80
2023/01/03 11:46:10;;;;;;;;;;;;;;;;;;7367760;19;20130;-81
2023/01/03 11:48:35;;;;;;;;;;;;;;;;;;7367662;19;19927;-80
2023/01/03 11:51:00;;;;;;;;;;;;;;;;;;7369350;19;20367;-80
2023/01/03 11:53:26;;;;;;;;;;;;;;;;;;7352521;19;19979;-81
2023/01/03 11:55:51;;;;;;;;;;;;;;;;;;7365667;19;19918;-80
2023/01/03 11:58:16;;;;;;;;;;;;;;;;;;7367022;19;19982;-81
2023/01/03 12:00:41;;;;;;;;;;;;;;;;;;7364478;19;19927;-78
2023/01/03 12:03:06;;;;;;;;;;;;;;;;;;7363281;19;19921;-81
2023/01/03 12:05:31;;;;;;;;;;;;;;;;;;7367039;19;20297;-80
2023/01/03 12:07:56;;;;;;;;;;;;;;;;;;7351204;19;19998;-80
2023/01/03 12:10:21;;;;;;;;;;;;;;;;;;7364198;19;19959;-80
2023/01/03 12:12:47;;;;;;;;;;;;;;;;;;7367540;19;19926;-80
2023/01/03 12:15:12;;;;;;;;;;;;;;;;;;7367697;19;20041;-80
2023/01/03 12:17:37;;;;;;;;;;;;;;;;;;7363370;19;19921;-80
2023/01/03 12:20:02;;;;;;;;;;;;;;;;;;7366518;19;19939;-80
2023/01/03 12:22:27;;;;;;;;;;;;;;;;;;7365450;19;19950;-80
2023/01/03 12:24:52;;;;;;;;;;;;;;;;;;7365992;19;20014;-80
2023/01/03 12:27:17;;;;;;;;;;;;;;;;;;7359814;19;20196;-79
2023/01/03 12:29:42;;;;;;;;;;;;;;;;;;7367946;19;19974;-81
2023/01/03 12:32:08;;;;;;;;;;;;;;;;;;7364384;19;19922;-78
2023/01/03 12:34:33;;;;;;;;;;;;;;;;;;7365992;19;19931;-80
2023/01/03 12:36:58;;;;;;;;;;;;;;;;;;7363860;19;19958;-79
2023/01/03 12:39:23;;;;;;;;;;;;;;;;;;7347389;19;19939;-80
2023/01/03 12:41:48;;;;;;;;;;;;;;;;;;7368580;19;19926;-81
2023/01/03 12:44:13;;;;;;;;;;;;;;;;;;7350327;19;20171;-79
2023/01/03 12:46:38;;;;;;;;;;;;;;;;;;7347621;19;19915;-80
2023/01/03 12:49:04;;;;;;;;;;;;;;;;;;7368957;19;20792;-80
2023/01/03 12:51:29;;;;;;;;;;;;;;;;;;7362760;19;20032;-80
2023/01/03 12:53:54;;;;;;;;;;;;;;;;;;7366551;19;19990;-80
2023/01/03 12:56:19;;;;;;;;;;;;;;;;;;7369054;19;19943;-79
2023/01/03 12:58:44;;;;;;;;;;;;;;;;;;7371808;19;19934;-80
2023/01/03 13:01:09;;;;;;;;;;;;;;;;;;7367684;19;19975;-80
2023/01/03 13:03:34;;;;;;;;;;;;;;;;;;7368040;19;19932;-79
2023/01/03 13:06:00;;;;;;;;;;;;;;;;;;7370477;19;19954;-80
2023/01/03 13:08:25;;;;;;;;;;;;;;;;;;7367444;19;19968;-80
2023/01/03 13:10:50;;;;;;;;;;;;;;;;;;7367301;19;20411;-80
2023/01/03 13:13:15;;;;;;;;;;;;;;;;;;7372596;19;20529;-79
2023/01/03 13:15:40;;;;;;;;;;;;;;;;;;7366508;19;20514;-80
2023/01/03 13:18:05;;;;;;;;;;;;;;;;;;7366900;19;19930;-80
2023/01/03 13:20:30;;;;;;;;;;;;;;;;;;7365990;19;19907;-79
2023/01/03 13:22:55;;;;;;;;;;;;;;;;;;7366002;19;20210;-79
2023/01/03 13:25:20;;;;;;;;;;;;;;;;;;7368696;19;20346;-79
2023/01/03 13:27:46;;;;;;;;;;;;;;;;;;7370192;19;20226;-80
2023/01/03 13:30:11;;;;;;;;;;;;;;;;;;7370516;19;19926;-80
2023/01/03 13:32:36;;;;;;;;;;;;;;;;;;7368258;19;20445;-79
2023/01/03 13:35:01;;;;;;;;;;;;;;;;;;7368448;19;19944;-78
2023/01/03 13:37:26;;;;;;;;;;;;;;;;;;7362975;19;19918;-79
2023/01/03 13:39:51;;;;;;;;;;;;;;;;;;7369838;19;20077;-80
2023/01/03 13:42:16;;;;;;;;;;;;;;;;;;7372324;19;19914;-78
2023/01/03 13:44:41;;;;;;;;;;;;;;;;;;7370996;19;19986;-79
2023/01/03 13:47:07;;;;;;;;;;;;;;;;;;7369620;19;19933;-79
2023/01/03 13:49:32;;;;;;;;;;;;;;;;;;7368248;19;19929;-80
2023/01/03 13:51:57;;;;;;;;;;;;;;;;;;7371273;19;19923;-80
2023/01/03 13:54:23;;;;;;;;;;;;;;;;;;7362980;19;20456;-79
2023/01/03 13:56:48;;;;;;;;;;;;;;;;;;7372082;19;20317;-79
2023/01/03 13:59:13;;;;;;;;;;;;;;;;;;7368165;19;19979;-78
2023/01/03 14:01:39;;;;;;;;;;;;;;;;;;7366527;19;19923;-78
2023/01/03 14:04:07;;;;;;;;;;;;;;;;;;7372152;19;19918;-80
2023/01/03 14:06:32;;;;;;;;;;;;;;;;;;7360973;19;19919;-79
2023/01/03 14:08:57;;;;;;;;;;;;;;;;;;7357013;19;20715;-78
2023/01/03 14:11:22;;;;;;;;;;;;;;;;;;7366513;19;19922;-80
2023/01/03 14:13:47;;;;;;;;;;;;;;;;;;7369769;19;19953;-80
2023/01/03 14:16:13;;;;;;;;;;;;;;;;;;7369919;19;19915;-79
2023/01/03 14:18:38;;;;;;;;;;;;;;;;;;7364236;19;19942;-79
2023/01/03 14:21:03;;;;;;;;;;;;;;;;;;7371088;19;20237;-79
2023/01/03 14:23:28;;;;;;;;;;;;;;;;;;7360396;19;20367;-79
2023/01/03 14:25:53;;;;;;;;;;;;;;;;;;7371285;19;19925;-79
2023/01/03 14:28:18;;;;;;;;;;;;;;;;;;7367410;19;19926;-78
2023/01/03 14:30:44;;;;;;;;;;;;;;;;;;7370321;19;20411;-79
2023/01/03 14:33:09;;;;;;;;;;;;;;;;;;7370850;19;19919;-79
2023/01/03 14:35:35;;;;;;;;;;;;;;;;;;7364315;19;20022;-80
2023/01/03 14:38:00;;;;;;;;;;;;;;;;;;7365211;19;19954;-79
2023/01/03 14:40:25;;;;;;;;;;;;;;;;;;7368327;19;19915;-78
2023/01/03 14:42:50;;;;;;;;;;;;;;;;;;7364643;19;19951;-79
2023/01/03 14:45:15;;;;;;;;;;;;;;;;;;7370513;19;20018;-79
2023/01/03 14:47:40;;;;;;;;;;;;;;;;;;7361382;19;20323;-79
2023/01/03 14:50:05;;;;;;;;;;;;;;;;;;7361268;19;20497;-80
2023/01/03 14:52:31;;;;;;;;;;;;;;;;;;7362449;19;19946;-79
2023/01/03 14:54:56;;;;;;;;;;;;;;;;;;7362945;19;20591;-79
2023/01/03 14:57:21;;;;;;;;;;;;;;;;;;7364081;19;19932;-79
2023/01/03 14:59:46;;;;;;;;;;;;;;;;;;7369233;19;19969;-79
2023/01/03 15:02:11;;;;;;;;;;;;;;;;;;7365216;19;19973;-80
2023/01/03 15:04:36;;;;;;;;;;;;;;;;;;7366496;19;19963;-80
2023/01/03 15:07:01;;;;;;;;;;;;;;;;;;7366198;19;19939;-79
2023/01/03 15:09:27;;;;;;;;;;;;;;;;;;7363195;19;19964;-80
2023/01/03 15:11:55;;;;;;;;;;;;;;;;;;7369370;19;19935;-80
2023/01/03 15:14:21;;;;;;;;;;;;;;;;;;7367559;19;20225;-79
2023/01/03 15:16:46;;;;;;;;;;;;;;;;;;7361305;19;19935;-79
2023/01/03 15:19:11;;;;;;;;;;;;;;;;;;7370528;19;20051;-79
2023/01/03 15:21:37;;;;;;;;;;;;;;;;;;7365062;19;20333;-79
2023/01/03 15:24:02;;;;;;;;;;;;;;;;;;7367768;19;19918;-79
2023/01/03 15:26:27;;;;;;;;;;;;;;;;;;7369923;19;20231;-78
2023/01/03 15:28:53;;;;;;;;;;;;;;;;;;7368633;19;19918;-78
2023/01/03 15:31:18;;;;;;;;;;;;;;;;;;7369650;19;19923;-78
2023/01/03 15:33:43;;;;;;;;;;;;;;;;;;7367415;19;19930;-80
2023/01/03 15:36:09;;;;;;;;;;;;;;;;;;7367576;19;19925;-80
2023/01/03 15:38:34;;;;;;;;;;;;;;;;;;7361742;19;20259;-79
2023/01/03 15:40:59;;;;;;;;;;;;;;;;;;7368525;19;20376;-79
2023/01/03 15:43:24;;;;;;;;;;;;;;;;;;7364818;19;19919;-79
2023/01/03 15:45:49;;;;;;;;;;;;;;;;;;7365989;19;19927;-80
2023/01/03 15:48:14;;;;;;;;;;;;;;;;;;7368101;19;19921;-80
2023/01/03 15:50:40;;;;;;;;;;;;;;;;;;7366088;19;19926;-80
2023/01/03 15:53:05;;;;;;;;;;;;;;;;;;7364719;19;20038;-80
2023/01/03 15:55:30;;;;;;;;;;;;;;;;;;7363414;19;20258;-79
2023/01/03 15:57:55;;;;;;;;;;;;;;;;;;7362205;19;20026;-80
2023/01/03 16:00:20;;;;;;;;;;;;;;;;;;7357932;19;19937;-80
2023/01/03 16:02:45;;;;;;;;;;;;;;;;;;7363481;19;19925;-80
2023/01/03 16:05:10;;;;;;;;;;;;;;;;;;7365563;19;20310;-80
2023/01/03 16:07:35;;;;;;;;;;;;;;;;;;7361151;19;20479;-79
2023/01/03 16:10:00;;;;;;;;;;;;;;;;;;7368740;19;19938;-79
2023/01/03 16:12:26;;;;;;;;;;;;;;;;;;7365150;19;19949;-81
2023/01/03 16:14:51;;;;;;;;;;;;;;;;;;7367758;19;19934;-80
2023/01/03 16:17:16;;;;;;;;;;;;;;;;;;7369449;19;19915;-79
2023/01/03 16:19:41;;;;;;;;;;;;;;;;;;7367537;19;20263;-79
2023/01/03 16:22:06;;;;;;;;;;;;;;;;;;7351436;19;19974;-79
2023/01/03 16:24:31;;;;;;;;;;;;;;;;;;7363589;19;19925;-79
2023/01/03 16:26:57;;;;;;;;;;;;;;;;;;7374069;19;20425;-79
2023/01/03 16:29:22;;;;;;;;;;;;;;;;;;7372602;19;19943;-79
2023/01/03 16:31:47;;;;;;;;;;;;;;;;;;7375593;19;20015;-79
2023/01/03 16:34:12;;;;;;;;;;;;;;;;;;7365480;19;19957;-79
2023/01/03 16:36:38;;;;;;;;;;;;;;;;;;7370723;19;20063;-79
2023/01/03 16:39:03;;;;;;;;;;;;;;;;;;7369520;19;19915;-79
2023/01/03 16:41:28;;;;;;;;;;;;;;;;;;7360576;19;20209;-79
2023/01/03 16:43:53;;;;;;;;;;;;;;;;;;7368596;19;19914;-80
2023/01/03 16:46:18;;;;;;;;;;;;;;;;;;7373274;19;19962;-79
2023/01/03 16:48:43;;;;;;;;;;;;;;;;;;7370741;19;19915;-79
2023/01/03 16:51:08;;;;;;;;;;;;;;;;;;7369504;19;19930;-79
2023/01/03 16:53:34;;;;;;;;;;;;;;;;;;7357917;19;19972;-76
2023/01/03 16:55:59;;;;;;;;;;;;;;;;;;7364580;19;19926;-78
2023/01/03 16:58:24;;;;;;;;;;;;;;;;;;7353175;19;20363;-77
2023/01/03 17:00:50;;;;;;;;;;;;;;;;;;7361421;19;19922;-77
2023/01/03 17:03:15;;;;;;;;;;;;;;;;;;7362598;19;19939;-77
2023/01/03 17:05:40;;;;;;;;;;;;;;;;;;7364924;19;19929;-78
2023/01/03 17:08:05;;;;;;;;;;;;;;;;;;7367616;19;19929;-78
2023/01/03 17:10:30;;;;;;;;;;;;;;;;;;7350963;19;20290;-78
2023/01/03 17:12:55;;;;;;;;;;;;;;;;;;7371079;19;20336;-78
2023/01/03 17:15:21;;;;;;;;;;;;;;;;;;7367703;19;19935;-77
2023/01/03 17:17:46;;;;;;;;;;;;;;;;;;7365048;19;19990;-78
2023/01/03 17:20:11;;;;;;;;;;;;;;;;;;7373920;19;19914;-77
2023/01/03 17:22:37;;;;;;;;;;;;;;;;;;7362096;19;20212;-78
2023/01/03 18:32:35;;;;;;;;;;;;;;;;;;7293472;19;20120;-85
2023/01/03 18:35:01;;;;;;;;;;;;;;;;;;7348900;19;20255;-85
2023/01/03 18:37:26;;;;;;;;;;;;;;;;;;7360841;19;19932;-84